Time;durP1;ratioP1;P1;durP2;ratioP2;P2;SDS_P1;SDS_P2;PMS_P1;PMS_P2;Temp;Humidity;BMP_temperature;BMP_pressure;BME280_temperature;BME280_humidity;BME280_pressure;Samples;Min_cycle;Max_cycle;Signal;HPM_P1;HPM_P2
2022/08/21 00:00:49;;;;;;;22.90;10.55;;;;;;;;;;4939219;28;20157;-67
2022/08/21 00:03:15;;;;;;;22.02;10.77;;;;;;;;;;4940559;28;20110;-67
2022/08/21 00:05:43;;;;;;;20.65;10.75;;;;;;;;;;4954638;28;20126;-67
2022/08/21 00:08:09;;;;;;;22.38;10.55;;;;;;;;;;4941277;28;20031;-67
2022/08/21 00:10:35;;;;;;;20.15;11.45;;;;;;;;;;4946016;28;20776;-67
2022/08/21 00:13:02;;;;;;;19.77;10.98;;;;;;;;;;4941198;28;20034;-67
2022/08/21 00:15:29;;;;;;;23.67;10.60;;;;;;;;;;4940931;28;20085;-67
2022/08/21 00:17:56;;;;;;;19.25;10.48;;;;;;;;;;4940081;28;20134;-68
2022/08/21 00:20:22;;;;;;;24.77;11.32;;;;;;;;;;4941174;28;20655;-67
2022/08/21 00:22:49;;;;;;;20.98;10.60;;;;;;;;;;4937596;28;20166;-67
2022/08/21 00:25:16;;;;;;;23.17;12.25;;;;;;;;;;4940328;28;20042;-66
2022/08/21 00:27:43;;;;;;;26.15;11.82;;;;;;;;;;4941310;28;20031;-67
2022/08/21 00:30:10;;;;;;;33.55;12.25;;;;;;;;;;4940558;28;20031;-67
2022/08/21 00:32:38;;;;;;;23.77;11.82;;;;;;;;;;4953570;28;20519;-67
2022/08/21 00:35:05;;;;;;;26.13;13.00;;;;;;;;;;4949585;28;20023;-67
2022/08/21 00:37:31;;;;;;;23.23;12.10;;;;;;;;;;4942935;28;20035;-67
2022/08/21 00:39:57;;;;;;;22.10;12.73;;;;;;;;;;4952823;28;20031;-67
2022/08/21 00:42:23;;;;;;;22.10;12.05;;;;;;;;;;4947722;28;20446;-67
2022/08/21 00:44:50;;;;;;;26.27;14.02;;;;;;;;;;4953481;28;20173;-67
2022/08/21 00:47:17;;;;;;;18.75;12.07;;;;;;;;;;4937880;28;20665;-67
2022/08/21 00:49:43;;;;;;;26.13;13.20;;;;;;;;;;4951618;28;20035;-67
2022/08/21 00:52:11;;;;;;;30.55;12.90;;;;;;;;;;4955950;28;20035;-67
2022/08/21 00:54:37;;;;;;;26.25;12.18;;;;;;;;;;4939621;28;20051;-67
2022/08/21 00:57:07;;;;;;;25.83;13.90;;;;;;;;;;5006335;28;20035;-67
2022/08/21 00:59:35;;;;;;;23.67;13.07;;;;;;;;;;4941938;28;20031;-67
2022/08/21 01:02:01;;;;;;;29.85;14.10;;;;;;;;;;4939907;28;20027;-67
2022/08/21 01:04:28;;;;;;;22.27;12.80;;;;;;;;;;4938530;28;20461;-67
2022/08/21 01:06:54;;;;;;;24.48;13.07;;;;;;;;;;4940104;28;20039;-67
2022/08/21 01:09:20;;;;;;;25.58;12.85;;;;;;;;;;4939675;28;20086;-67
2022/08/21 01:11:47;;;;;;;25.02;12.65;;;;;;;;;;4942600;28;20060;-67
2022/08/21 01:14:14;;;;;;;30.05;12.82;;;;;;;;;;4939372;28;20035;-67
2022/08/21 01:16:42;;;;;;;24.83;13.82;;;;;;;;;;4955393;28;20085;-67
2022/08/21 01:19:08;;;;;;;25.95;14.15;;;;;;;;;;4952300;28;20071;-67
2022/08/21 01:21:34;;;;;;;31.75;15.30;;;;;;;;;;4941754;28;20158;-67
2022/08/21 01:24:01;;;;;;;27.70;14.85;;;;;;;;;;4941583;28;20080;-69
2022/08/21 01:26:29;;;;;;;27.55;14.95;;;;;;;;;;4938198;28;20023;-69
2022/08/21 01:28:55;;;;;;;29.38;15.25;;;;;;;;;;4937588;28;20051;-68
2022/08/21 01:31:23;;;;;;;27.90;16.40;;;;;;;;;;4923162;28;20066;-68
2022/08/21 01:33:49;;;;;;;31.60;15.13;;;;;;;;;;4941343;28;20515;-68
2022/08/21 01:36:15;;;;;;;27.00;16.38;;;;;;;;;;4944760;28;20076;-68
2022/08/21 01:38:41;;;;;;;33.25;15.70;;;;;;;;;;4942299;28;20130;-68
2022/08/21 01:41:08;;;;;;;26.13;14.45;;;;;;;;;;4945236;28;20503;-68
2022/08/21 01:43:34;;;;;;;24.15;14.90;;;;;;;;;;4927438;28;20050;-68
2022/08/21 01:46:00;;;;;;;23.73;13.27;;;;;;;;;;4954596;28;20081;-68
2022/08/21 01:48:26;;;;;;;26.30;14.63;;;;;;;;;;4947197;28;20337;-68
2022/08/21 01:50:52;;;;;;;26.50;14.13;;;;;;;;;;4946831;28;20090;-67
2022/08/21 01:53:18;;;;;;;31.33;14.07;;;;;;;;;;4943852;28;20035;-67
2022/08/21 01:55:44;;;;;;;29.92;15.20;;;;;;;;;;4943613;28;20116;-67
2022/08/21 01:58:10;;;;;;;33.55;14.93;;;;;;;;;;4946910;28;20035;-67
2022/08/21 02:00:36;;;;;;;30.10;14.85;;;;;;;;;;4944164;28;20036;-67
2022/08/21 02:03:02;;;;;;;31.63;15.23;;;;;;;;;;4944008;28;20050;-67
2022/08/21 02:05:28;;;;;;;31.40;15.60;;;;;;;;;;4946661;28;20464;-68
2022/08/21 02:07:55;;;;;;;28.83;15.98;;;;;;;;;;4946510;28;20053;-67
2022/08/21 02:10:31;;;;;;;32.80;16.50;;;;;;;;;;4948659;28;20035;-68
2022/08/21 02:12:58;;;;;;;37.83;16.60;;;;;;;;;;4945774;28;20035;-68
2022/08/21 02:15:24;;;;;;;29.55;15.18;;;;;;;;;;4945969;28;20027;-68
2022/08/21 02:17:52;;;;;;;29.67;15.60;;;;;;;;;;4962045;28;20039;-68
2022/08/21 02:20:23;;;;;;;30.58;15.68;;;;;;;;;;4957079;28;20552;-68
2022/08/21 02:22:49;;;;;;;;;;;;;;;;;;4943465;28;20031;-68
2022/08/21 02:25:15;;;;;;;28.35;14.80;;;;;;;;;;4945835;28;19976;-67
2022/08/21 02:27:43;;;;;;;35.40;15.40;;;;;;;;;;4944850;28;20179;-67
2022/08/21 02:30:14;;;;;;;28.40;14.45;;;;;;;;;;4930014;28;20039;-67
2022/08/21 02:32:41;;;;;;;32.75;15.18;;;;;;;;;;4944909;28;20034;-67
2022/08/21 02:35:09;;;;;;;29.63;16.27;;;;;;;;;;4945411;28;20031;-67
2022/08/21 02:37:35;;;;;;;32.80;16.05;;;;;;;;;;4942503;28;20039;-67
2022/08/21 02:40:01;;;;;;;32.20;15.60;;;;;;;;;;4962747;28;20071;-67
2022/08/21 02:42:27;;;;;;;26.30;14.40;;;;;;;;;;4941720;28;20117;-66
2022/08/21 02:44:53;;;;;;;27.08;14.88;;;;;;;;;;4950168;28;20023;-66
2022/08/21 02:47:19;;;;;;;31.00;14.90;;;;;;;;;;4944192;28;20134;-67
2022/08/21 02:49:45;;;;;;;33.00;16.23;;;;;;;;;;4947491;28;20096;-67
2022/08/21 02:52:11;;;;;;;36.28;16.30;;;;;;;;;;4943477;28;20040;-67
2022/08/21 02:54:37;;;;;;;29.27;15.70;;;;;;;;;;4959910;28;20389;-67
2022/08/21 02:57:03;;;;;;;27.52;14.52;;;;;;;;;;4952974;28;20036;-67
2022/08/21 02:59:29;;;;;;;29.67;13.65;;;;;;;;;;4947698;28;20511;-67
2022/08/21 03:01:55;;;;;;;27.02;14.70;;;;;;;;;;4941388;28;20032;-67
2022/08/21 03:04:22;;;;;;;27.40;13.43;;;;;;;;;;4944747;28;20046;-67
2022/08/21 03:06:48;;;;;;;29.30;14.73;;;;;;;;;;4945206;28;20039;-67
2022/08/21 03:09:14;;;;;;;32.25;15.13;;;;;;;;;;4947137;28;20093;-67
2022/08/21 03:11:40;;;;;;;29.92;14.93;;;;;;;;;;4946076;28;20042;-67
2022/08/21 03:14:06;;;;;;;26.85;14.45;;;;;;;;;;4946062;28;20027;-67
2022/08/21 03:16:32;;;;;;;33.92;14.15;;;;;;;;;;4944693;28;21048;-67
2022/08/21 03:18:59;;;;;;;36.95;15.00;;;;;;;;;;5010907;28;20035;-67
2022/08/21 03:21:25;;;;;;;32.90;14.80;;;;;;;;;;4941282;28;20047;-67
2022/08/21 03:23:53;;;;;;;28.48;14.13;;;;;;;;;;4945319;28;20570;-67
2022/08/21 03:26:19;;;;;;;29.83;15.10;;;;;;;;;;4948203;28;20039;-67
2022/08/21 03:28:45;;;;;;;34.72;14.27;;;;;;;;;;4943251;28;20058;-67
2022/08/21 03:31:12;;;;;;;29.10;14.52;;;;;;;;;;4960454;28;20039;-67
2022/08/21 03:33:38;;;;;;;34.58;15.35;;;;;;;;;;4945995;28;20077;-67
2022/08/21 03:36:06;;;;;;;30.88;14.85;;;;;;;;;;4929628;28;20047;-67
2022/08/21 03:38:32;;;;;;;27.67;13.98;;;;;;;;;;5008848;28;20077;-67
2022/08/21 03:40:59;;;;;;;34.47;13.40;;;;;;;;;;4949389;28;20028;-67
2022/08/21 03:43:26;;;;;;;29.05;14.48;;;;;;;;;;4942564;28;20053;-66
2022/08/21 03:45:52;;;;;;;26.42;12.70;;;;;;;;;;4945408;28;20468;-67
2022/08/21 03:48:18;;;;;;;29.88;15.57;;;;;;;;;;4940799;28;20117;-67
2022/08/21 03:50:46;;;;;;;34.13;14.90;;;;;;;;;;4942337;28;20074;-69
2022/08/21 03:53:13;;;;;;;29.30;15.60;;;;;;;;;;4941938;28;20078;-67
2022/08/21 03:55:39;;;;;;;37.15;17.35;;;;;;;;;;5003950;28;20416;-67
2022/08/21 03:58:05;;;;;;;35.28;18.33;;;;;;;;;;4939886;28;20027;-67
2022/08/21 04:00:31;;;;;;;34.25;17.73;;;;;;;;;;4942622;28;20144;-67
2022/08/21 04:02:57;;;;;;;36.42;18.77;;;;;;;;;;4947675;28;20059;-67
2022/08/21 04:05:29;;;;;;;38.42;19.50;;;;;;;;;;4939057;28;20130;-67
2022/08/21 04:08:00;;;;;;;42.95;19.83;;;;;;;;;;4940696;28;20490;-67
2022/08/21 04:10:26;;;;;;;;;;;;;;;;;;4944875;28;20031;-67
2022/08/21 04:12:53;;;;;;;38.17;18.65;;;;;;;;;;4940985;28;21268;-67
2022/08/21 04:15:20;;;;;;;39.05;20.00;;;;;;;;;;4942303;28;20050;-67
2022/08/21 04:17:46;;;;;;;37.38;19.70;;;;;;;;;;4942053;28;20508;-67
2022/08/21 04:20:12;;;;;;;37.28;19.77;;;;;;;;;;4941835;28;20035;-67
2022/08/21 04:22:38;;;;;;;36.45;20.55;;;;;;;;;;4940371;28;20038;-67
2022/08/21 04:25:05;;;;;;;41.28;20.15;;;;;;;;;;4939754;28;20145;-67
2022/08/21 04:27:31;;;;;;;61.20;22.58;;;;;;;;;;4942923;28;20043;-67
2022/08/21 04:29:57;;;;;;;47.08;22.48;;;;;;;;;;4942134;28;20035;-67
2022/08/21 04:32:23;;;;;;;48.72;22.55;;;;;;;;;;4941977;28;21614;-66
2022/08/21 04:34:50;;;;;;;44.30;22.50;;;;;;;;;;4941046;28;20036;-67
2022/08/21 04:37:16;;;;;;;41.70;21.83;;;;;;;;;;4940368;28;20067;-66
2022/08/21 04:39:42;;;;;;;53.72;22.70;;;;;;;;;;4944748;28;20067;-66
2022/08/21 04:42:09;;;;;;;44.72;22.60;;;;;;;;;;4941582;28;20042;-66
2022/08/21 04:44:35;;;;;;;46.88;22.38;;;;;;;;;;4952731;28;20099;-66
2022/08/21 04:47:01;;;;;;;43.63;22.65;;;;;;;;;;4951417;28;20051;-67
2022/08/21 04:49:27;;;;;;;43.95;22.40;;;;;;;;;;4942370;28;20069;-67
2022/08/21 04:51:53;;;;;;;44.42;22.10;;;;;;;;;;4953315;28;20038;-68
2022/08/21 04:54:20;;;;;;;41.47;21.02;;;;;;;;;;4946042;28;20047;-67
2022/08/21 04:56:59;;;;;;;46.97;21.08;;;;;;;;;;4949384;28;20114;-67
2022/08/21 04:59:32;;;;;;;44.88;20.88;;;;;;;;;;4938601;28;20511;-67
2022/08/21 05:01:58;;;;;;;43.20;20.48;;;;;;;;;;4942018;28;20075;-67
2022/08/21 05:04:26;;;;;;;47.03;21.77;;;;;;;;;;4946721;28;20030;-67
2022/08/21 05:06:55;;;;;;;38.78;20.75;;;;;;;;;;4939098;28;20045;-67
2022/08/21 05:09:22;;;;;;;40.72;20.77;;;;;;;;;;4938841;28;20716;-67
2022/08/21 05:11:48;;;;;;;35.88;20.15;;;;;;;;;;4941549;28;20081;-67
2022/08/21 05:14:15;;;;;;;42.30;20.80;;;;;;;;;;4945279;28;20534;-67
2022/08/21 05:16:43;;;;;;;45.35;19.60;;;;;;;;;;4939122;28;20069;-67
2022/08/21 05:19:09;;;;;;;43.08;20.90;;;;;;;;;;4940645;28;20118;-67
2022/08/21 05:21:36;;;;;;;37.90;18.60;;;;;;;;;;4940842;28;20047;-67
2022/08/21 05:24:02;;;;;;;33.13;17.25;;;;;;;;;;4940589;28;20028;-67
2022/08/21 05:26:29;;;;;;;27.85;14.23;;;;;;;;;;4940045;28;20126;-67
2022/08/21 05:28:55;;;;;;;23.77;11.70;;;;;;;;;;4945106;28;20046;-67
2022/08/21 05:31:22;;;;;;;19.83;10.63;;;;;;;;;;4942767;28;20036;-67
2022/08/21 05:33:48;;;;;;;19.35;9.40;;;;;;;;;;4939163;28;20540;-67
2022/08/21 05:36:14;;;;;;;16.98;8.10;;;;;;;;;;4940786;28;20496;-67
2022/08/21 05:38:40;;;;;;;12.52;7.55;;;;;;;;;;4941333;28;20449;-67
2022/08/21 05:41:07;;;;;;;23.15;7.55;;;;;;;;;;4942056;28;20039;-67
2022/08/21 05:43:35;;;;;;;18.92;8.55;;;;;;;;;;4939027;28;20392;-67
2022/08/21 05:46:02;;;;;;;19.10;6.88;;;;;;;;;;4942356;28;20481;-68
2022/08/21 05:48:28;;;;;;;13.95;6.47;;;;;;;;;;4939960;28;20110;-67
2022/08/21 05:50:54;;;;;;;18.10;6.68;;;;;;;;;;4943140;28;20442;-68
2022/08/21 05:53:21;;;;;;;16.77;6.75;;;;;;;;;;4942666;28;20035;-67
2022/08/21 05:55:47;;;;;;;18.90;7.05;;;;;;;;;;4944652;28;20110;-67
2022/08/21 05:58:15;;;;;;;17.38;6.57;;;;;;;;;;4945134;28;20035;-67
2022/08/21 06:00:41;;;;;;;17.35;7.00;;;;;;;;;;4944114;28;20093;-68
2022/08/21 06:03:27;;;;;;;16.27;6.55;;;;;;;;;;4941261;28;20120;-68
2022/08/21 06:05:55;;;;;;;20.30;6.68;;;;;;;;;;4940549;28;20027;-67
2022/08/21 06:08:21;;;;;;;18.02;7.22;;;;;;;;;;4954993;28;20500;-68
2022/08/21 06:10:48;;;;;;;15.85;6.65;;;;;;;;;;4945112;28;20027;-67
2022/08/21 06:13:15;;;;;;;19.65;6.32;;;;;;;;;;4943165;28;20030;-67
2022/08/21 06:15:41;;;;;;;19.58;6.13;;;;;;;;;;4943341;28;20036;-67
2022/08/21 06:18:07;;;;;;;16.10;6.13;;;;;;;;;;4950146;28;20126;-67
2022/08/21 06:20:33;;;;;;;14.15;6.38;;;;;;;;;;4964750;28;20028;-68
2022/08/21 06:22:59;;;;;;;12.18;5.63;;;;;;;;;;4943499;28;20031;-68
2022/08/21 06:25:25;;;;;;;16.48;5.75;;;;;;;;;;4931497;28;20755;-68
2022/08/21 06:27:51;;;;;;;20.63;6.70;;;;;;;;;;4947444;28;20043;-68
2022/08/21 06:30:18;;;;;;;20.55;6.63;;;;;;;;;;4943924;28;20039;-67
2022/08/21 06:32:44;;;;;;;16.10;6.72;;;;;;;;;;4963615;28;20508;-68
2022/08/21 06:35:11;;;;;;;19.95;6.47;;;;;;;;;;4956796;28;20043;-67
2022/08/21 06:37:37;;;;;;;16.98;5.70;;;;;;;;;;4932125;28;20047;-67
2022/08/21 06:40:06;;;;;;;19.67;5.63;;;;;;;;;;4930673;28;20042;-67
2022/08/21 06:42:32;;;;;;;18.23;5.90;;;;;;;;;;4945547;28;20046;-67
2022/08/21 06:44:58;;;;;;;17.45;5.68;;;;;;;;;;4950185;28;20481;-67
2022/08/21 06:47:25;;;;;;;19.17;6.18;;;;;;;;;;4948672;28;20126;-68
2022/08/21 06:49:51;;;;;;;22.17;5.80;;;;;;;;;;4949279;28;20038;-68
2022/08/21 06:52:17;;;;;;;17.65;5.63;;;;;;;;;;4951524;28;20092;-68
2022/08/21 06:54:43;;;;;;;23.65;6.93;;;;;;;;;;4944231;28;20036;-69
2022/08/21 06:57:09;;;;;;;22.52;6.50;;;;;;;;;;4944159;28;21694;-68
2022/08/21 06:59:35;;;;;;;21.92;7.43;;;;;;;;;;4951359;28;20146;-68
2022/08/21 07:02:01;;;;;;;14.48;6.15;;;;;;;;;;4961393;28;20035;-68
2022/08/21 07:04:27;;;;;;;19.77;6.70;;;;;;;;;;4947065;28;20404;-68
2022/08/21 07:06:53;;;;;;;23.42;7.18;;;;;;;;;;4944031;28;20039;-67
2022/08/21 07:09:19;;;;;;;19.38;7.15;;;;;;;;;;4952406;28;20031;-68
2022/08/21 07:11:47;;;;;;;17.77;6.97;;;;;;;;;;4970947;28;20032;-68
2022/08/21 07:14:13;;;;;;;22.50;7.45;;;;;;;;;;4948737;28;20032;-68
2022/08/21 07:16:39;;;;;;;19.38;6.90;;;;;;;;;;4943699;28;20141;-68
2022/08/21 07:19:05;;;;;;;20.35;7.57;;;;;;;;;;4960141;28;20409;-68
2022/08/21 07:21:31;;;;;;;21.25;7.13;;;;;;;;;;4943794;28;20028;-68
2022/08/21 07:23:57;;;;;;;27.45;7.38;;;;;;;;;;4960652;28;20035;-68
2022/08/21 07:26:24;;;;;;;23.88;7.80;;;;;;;;;;4944999;28;20024;-67
2022/08/21 07:28:50;;;;;;;23.83;8.65;;;;;;;;;;4944353;28;20480;-68
2022/08/21 07:31:17;;;;;;;20.45;8.00;;;;;;;;;;4942779;28;20028;-68
2022/08/21 07:33:44;;;;;;;17.02;7.15;;;;;;;;;;4942436;28;20399;-68
2022/08/21 07:36:10;;;;;;;18.88;6.97;;;;;;;;;;4949801;28;20038;-68
2022/08/21 07:38:36;;;;;;;23.40;7.88;;;;;;;;;;4946518;28;20122;-67
2022/08/21 07:41:03;;;;;;;28.02;7.47;;;;;;;;;;4944554;28;20118;-68
2022/08/21 07:43:29;;;;;;;28.92;7.78;;;;;;;;;;4951698;28;20065;-68
2022/08/21 07:45:57;;;;;;;20.77;7.13;;;;;;;;;;4958191;28;20054;-68
2022/08/21 07:48:23;;;;;;;29.73;7.63;;;;;;;;;;4945346;28;20031;-68
2022/08/21 07:50:49;;;;;;;22.10;7.55;;;;;;;;;;4945495;28;20035;-68
2022/08/21 07:53:15;;;;;;;23.75;7.95;;;;;;;;;;4945620;28;20023;-68
2022/08/21 07:55:41;;;;;;;25.25;8.52;;;;;;;;;;4940630;28;20088;-68
2022/08/21 07:58:07;;;;;;;26.27;7.82;;;;;;;;;;4942809;28;20062;-68
2022/08/21 08:00:34;;;;;;;21.15;8.00;;;;;;;;;;4934143;28;20652;-68
2022/08/21 08:03:00;;;;;;;26.67;8.30;;;;;;;;;;4943004;28;20169;-68
2022/08/21 08:05:28;;;;;;;19.45;7.45;;;;;;;;;;4945947;28;20043;-69
2022/08/21 08:07:54;;;;;;;21.65;7.70;;;;;;;;;;4940802;28;20035;-68
2022/08/21 08:10:20;;;;;;;22.92;7.65;;;;;;;;;;4950379;28;20035;-68
2022/08/21 08:12:47;;;;;;;22.00;7.63;;;;;;;;;;4954207;28;20082;-68
2022/08/21 08:15:15;;;;;;;24.00;7.50;;;;;;;;;;4979394;28;20076;-68
2022/08/21 08:17:41;;;;;;;17.52;6.70;;;;;;;;;;4944347;28;20113;-68
2022/08/21 08:20:09;;;;;;;23.90;6.95;;;;;;;;;;4941124;28;20547;-68
2022/08/21 08:22:36;;;;;;;20.35;6.90;;;;;;;;;;4940856;28;20036;-68
2022/08/21 08:25:02;;;;;;;19.05;7.35;;;;;;;;;;4941565;28;20423;-68
2022/08/21 08:27:28;;;;;;;18.17;6.65;;;;;;;;;;4940021;28;20499;-68
2022/08/21 08:29:55;;;;;;;21.73;6.82;;;;;;;;;;4939890;28;20044;-68
2022/08/21 08:32:21;;;;;;;24.08;8.05;;;;;;;;;;4955327;28;20039;-68
2022/08/21 08:34:48;;;;;;;19.17;6.63;;;;;;;;;;4932067;28;20075;-68
2022/08/21 08:37:16;;;;;;;20.52;7.47;;;;;;;;;;4939926;28;20039;-68
2022/08/21 08:39:42;;;;;;;18.48;6.90;;;;;;;;;;4942163;28;20027;-68
2022/08/21 08:42:09;;;;;;;18.60;6.18;;;;;;;;;;4940809;28;20039;-68
2022/08/21 08:44:36;;;;;;;13.98;5.22;;;;;;;;;;4943873;28;20064;-68
2022/08/21 08:47:02;;;;;;;17.08;5.35;;;;;;;;;;4940595;28;20088;-68
2022/08/21 08:49:35;;;;;;;16.20;5.20;;;;;;;;;;4940978;28;20129;-68
2022/08/21 08:52:04;;;;;;;17.60;5.03;;;;;;;;;;5005740;28;20125;-68
2022/08/21 08:54:36;;;;;;;21.40;4.93;;;;;;;;;;4942499;28;20496;-68
2022/08/21 08:57:04;;;;;;;13.77;5.05;;;;;;;;;;4945005;28;20106;-68
2022/08/21 08:59:39;;;;;;;14.07;4.95;;;;;;;;;;4940465;28;20126;-68
2022/08/21 09:02:05;;;;;;;18.02;4.55;;;;;;;;;;4939544;28;20028;-68
2022/08/21 09:04:31;;;;;;;14.27;4.47;;;;;;;;;;4941008;28;20106;-68
2022/08/21 09:07:26;;;;;;;16.17;4.35;;;;;;;;;;4952644;28;20131;-68
2022/08/21 09:10:14;;;;;;;14.68;4.22;;;;;;;;;;4959496;28;20118;-68
2022/08/21 09:12:48;;;;;;;11.52;3.50;;;;;;;;;;4942011;28;20057;-68
2022/08/21 09:15:18;;;;;;;17.60;4.60;;;;;;;;;;4943217;28;20496;-68
2022/08/21 09:18:07;;;;;;;17.33;4.40;;;;;;;;;;4941326;28;20039;-68
2022/08/21 09:20:33;;;;;;;17.65;3.80;;;;;;;;;;4947335;28;20085;-68
2022/08/21 09:23:02;;;;;;;12.27;3.50;;;;;;;;;;4940768;28;20081;-69
2022/08/21 09:25:31;;;;;;;15.75;3.80;;;;;;;;;;4942226;28;20319;-69
2022/08/21 09:27:57;;;;;;;17.48;4.47;;;;;;;;;;4936763;28;20035;-68
2022/08/21 09:30:28;;;;;;;16.17;4.35;;;;;;;;;;4947951;28;20027;-68
2022/08/21 09:32:54;;;;;;;13.38;3.83;;;;;;;;;;4940616;28;20035;-69
2022/08/21 09:35:22;;;;;;;12.95;3.47;;;;;;;;;;4942201;28;20573;-68
2022/08/21 09:37:53;;;;;;;18.60;3.80;;;;;;;;;;4940070;28;20126;-69
2022/08/21 09:40:31;;;;;;;15.15;3.78;;;;;;;;;;4941692;28;20121;-68
2022/08/21 09:43:00;;;;;;;12.13;3.47;;;;;;;;;;4939938;28;20027;-68
2022/08/21 09:45:26;;;;;;;15.57;4.47;;;;;;;;;;4942119;28;20198;-68
2022/08/21 09:47:52;;;;;;;11.45;3.33;;;;;;;;;;4941862;28;20097;-68
2022/08/21 09:50:26;;;;;;;11.55;3.20;;;;;;;;;;4942708;28;20045;-68
2022/08/21 09:52:54;;;;;;;13.57;3.42;;;;;;;;;;4943742;28;20029;-68
2022/08/21 09:58:18;;;;;;;17.23;2.95;;;;;;;;;;4945812;28;20083;-68
2022/08/21 10:00:44;;;;;;;12.98;3.30;;;;;;;;;;4945123;28;20085;-68
2022/08/21 10:03:11;;;;;;;14.25;3.40;;;;;;;;;;4946655;28;20038;-67
2022/08/21 10:05:38;;;;;;;17.15;3.15;;;;;;;;;;4951700;28;20101;-67
2022/08/21 10:08:05;;;;;;;11.48;2.97;;;;;;;;;;4947814;28;20054;-67
2022/08/21 10:10:32;;;;;;;16.83;3.28;;;;;;;;;;4963116;28;20038;-67
2022/08/21 10:13:01;;;;;;;9.55;2.38;;;;;;;;;;4948685;28;20516;-67
2022/08/21 10:15:30;;;;;;;14.05;2.58;;;;;;;;;;4949382;28;20023;-67
2022/08/21 10:18:05;;;;;;;11.50;3.17;;;;;;;;;;4959698;28;20090;-66
2022/08/21 10:20:36;;;;;;;11.55;3.00;;;;;;;;;;4951001;28;20114;-67
2022/08/21 10:23:18;;;;;;;14.32;2.88;;;;;;;;;;4948741;28;20035;-67
2022/08/21 10:25:48;;;;;;;10.70;2.47;;;;;;;;;;4948368;28;20042;-67
2022/08/21 10:28:22;;;;;;;14.90;3.10;;;;;;;;;;4944370;28;20027;-67
2022/08/21 10:30:48;;;;;;;10.07;2.60;;;;;;;;;;4945472;28;20027;-67
2022/08/21 10:33:32;;;;;;;11.73;3.20;;;;;;;;;;4947091;28;20065;-67
2022/08/21 10:35:58;;;;;;;16.02;2.72;;;;;;;;;;4962727;28;20044;-67
2022/08/21 10:38:40;;;;;;;8.57;2.50;;;;;;;;;;4947324;28;20443;-67
2022/08/21 10:41:25;;;;;;;10.57;3.00;;;;;;;;;;4961000;28;20094;-68
2022/08/21 10:44:00;;;;;;;9.85;2.75;;;;;;;;;;4949209;28;20031;-68
2022/08/21 10:46:47;;;;;;;13.95;3.67;;;;;;;;;;4947613;28;20156;-67
2022/08/21 10:49:22;;;;;;;14.27;3.90;;;;;;;;;;4947851;28;20075;-67
2022/08/21 10:51:51;;;;;;;14.38;3.80;;;;;;;;;;4946031;28;20150;-67
2022/08/21 10:54:36;;;;;;;15.57;4.50;;;;;;;;;;4959085;28;20440;-67
2022/08/21 10:57:06;;;;;;;14.93;4.47;;;;;;;;;;4946234;28;20093;-67
2022/08/21 10:59:38;;;;;;;16.38;4.50;;;;;;;;;;4949779;28;20023;-67
2022/08/21 11:02:07;;;;;;;11.68;3.92;;;;;;;;;;4954154;28;20086;-67
2022/08/21 11:04:48;;;;;;;14.18;4.60;;;;;;;;;;4956027;28;20086;-67
2022/08/21 11:07:38;;;;;;;12.43;3.58;;;;;;;;;;4943745;28;20063;-68
2022/08/21 11:10:08;;;;;;;14.93;4.05;;;;;;;;;;4947487;28;20132;-67
2022/08/21 11:12:46;;;;;;;14.38;3.25;;;;;;;;;;4946375;28;20030;-68
2022/08/21 11:15:19;;;;;;;13.75;2.90;;;;;;;;;;4945625;28;20028;-68
2022/08/21 11:17:52;;;;;;;12.55;2.80;;;;;;;;;;4967434;28;20587;-68
2022/08/21 11:20:29;;;;;;;9.43;2.85;;;;;;;;;;4945116;28;20061;-68
2022/08/21 11:23:27;;;;;;;11.82;2.80;;;;;;;;;;4939716;28;20516;-68
2022/08/21 11:25:58;;;;;;;14.77;3.08;;;;;;;;;;4955685;28;20066;-68
2022/08/21 11:28:23;;;;;;;;;;;;;;;;;;4940199;28;20039;-68
2022/08/21 11:30:55;;;;;;;11.45;2.78;;;;;;;;;;4952674;28;20438;-68
2022/08/21 11:33:21;;;;;;;12.68;3.33;;;;;;;;;;4940096;28;20027;-68
2022/08/21 11:35:47;;;;;;;11.52;2.47;;;;;;;;;;4942770;28;20024;-68
2022/08/21 11:38:13;;;;;;;11.57;2.90;;;;;;;;;;4942157;28;20039;-68
2022/08/21 11:40:58;;;;;;;14.15;2.95;;;;;;;;;;4943748;28;20468;-68
2022/08/21 11:43:45;;;;;;;10.60;2.92;;;;;;;;;;4939828;28;20050;-68
2022/08/21 11:46:17;;;;;;;10.20;2.70;;;;;;;;;;4941273;28;20150;-68
2022/08/21 11:49:00;;;;;;;10.93;2.53;;;;;;;;;;4940101;28;20057;-68
2022/08/21 11:51:49;;;;;;;12.85;2.90;;;;;;;;;;4942479;28;20055;-68
2022/08/21 11:54:24;;;;;;;11.03;3.00;;;;;;;;;;4960890;28;20051;-68
2022/08/21 11:57:03;;;;;;;10.80;2.25;;;;;;;;;;4943279;28;20393;-69
2022/08/21 11:59:44;;;;;;;10.15;2.60;;;;;;;;;;4939761;28;20050;-68
2022/08/21 12:02:18;;;;;;;14.25;2.83;;;;;;;;;;4940511;28;20035;-68
2022/08/21 12:04:46;;;;;;;12.23;2.72;;;;;;;;;;4954515;28;20039;-69
2022/08/21 12:07:15;;;;;;;14.70;2.70;;;;;;;;;;4942390;28;20058;-67
2022/08/21 12:09:51;;;;;;;11.13;2.58;;;;;;;;;;4940966;28;20027;-68
2022/08/21 12:12:26;;;;;;;10.35;2.20;;;;;;;;;;4940390;28;20516;-68
2022/08/21 12:15:05;;;;;;;11.35;2.28;;;;;;;;;;4941559;28;20024;-68
2022/08/21 12:17:40;;;;;;;8.55;2.50;;;;;;;;;;4947252;28;20142;-68
2022/08/21 12:20:23;;;;;;;13.40;2.40;;;;;;;;;;4942026;28;20027;-68
2022/08/21 12:22:54;;;;;;;7.88;2.65;;;;;;;;;;4940257;28;20046;-67
2022/08/21 12:25:22;;;;;;;11.80;2.70;;;;;;;;;;4941099;28;20038;-67
2022/08/21 12:28:06;;;;;;;12.98;3.15;;;;;;;;;;4938526;28;20039;-69
2022/08/21 12:30:37;;;;;;;9.52;2.90;;;;;;;;;;4940738;28;20114;-71
2022/08/21 12:33:05;;;;;;;13.13;2.47;;;;;;;;;;4940421;28;20039;-67
2022/08/21 12:35:44;;;;;;;10.90;2.33;;;;;;;;;;4969431;28;20031;-68
2022/08/21 12:38:15;;;;;;;13.35;3.17;;;;;;;;;;4947963;28;20035;-68
2022/08/21 12:41:01;;;;;;;11.98;2.70;;;;;;;;;;4941893;28;20353;-68
2022/08/21 12:43:36;;;;;;;14.38;3.05;;;;;;;;;;4938981;28;20043;-68
2022/08/21 12:46:04;;;;;;;11.05;2.55;;;;;;;;;;4945093;28;20186;-69
2022/08/21 12:48:50;;;;;;;7.90;2.15;;;;;;;;;;5003934;28;20032;-68
2022/08/21 12:51:23;;;;;;;9.63;2.50;;;;;;;;;;4943181;28;20057;-67
2022/08/21 12:53:49;;;;;;;14.75;2.85;;;;;;;;;;4942781;28;20031;-69
2022/08/21 12:56:17;;;;;;;10.75;2.10;;;;;;;;;;4944978;28;20900;-67
2022/08/21 12:58:48;;;;;;;12.13;2.70;;;;;;;;;;4941387;28;20047;-67
2022/08/21 13:01:14;;;;;;;;;;;;;;;;;;4940954;28;20457;-67
2022/08/21 13:03:41;;;;;;;12.10;2.35;;;;;;;;;;4945962;28;19917;-67
2022/08/21 13:06:08;;;;;;;10.77;2.90;;;;;;;;;;4942672;28;20149;-67
2022/08/21 13:08:40;;;;;;;11.75;2.80;;;;;;;;;;4960274;28;20043;-67
2022/08/21 13:11:07;;;;;;;15.07;3.08;;;;;;;;;;4940463;28;20031;-67
2022/08/21 13:13:33;;;;;;;12.50;3.03;;;;;;;;;;4939658;28;20495;-67
2022/08/21 13:16:04;;;;;;;11.57;2.45;;;;;;;;;;4939911;28;20745;-67
2022/08/21 13:18:32;;;;;;;10.45;3.10;;;;;;;;;;4945233;28;20031;-67
2022/08/21 13:21:07;;;;;;;11.70;2.67;;;;;;;;;;4943005;28;20042;-67
2022/08/21 13:23:33;;;;;;;10.27;2.58;;;;;;;;;;4942204;28;20031;-68
2022/08/21 13:25:59;;;;;;;15.57;3.78;;;;;;;;;;4944971;28;20027;-67
2022/08/21 13:28:33;;;;;;;9.13;2.45;;;;;;;;;;4946114;28;20409;-69
2022/08/21 13:31:01;;;;;;;13.40;2.70;;;;;;;;;;4945227;28;20026;-67
2022/08/21 13:33:30;;;;;;;13.70;2.97;;;;;;;;;;4943760;28;20043;-67
2022/08/21 13:35:56;;;;;;;11.15;2.13;;;;;;;;;;4951680;28;20035;-67
2022/08/21 13:38:30;;;;;;;10.45;2.75;;;;;;;;;;4956930;28;20044;-67
2022/08/21 13:40:58;;;;;;;12.40;2.38;;;;;;;;;;4941350;28;20514;-67
2022/08/21 13:43:28;;;;;;;8.05;2.17;;;;;;;;;;4950372;28;20040;-67
2022/08/21 13:45:54;;;;;;;9.13;2.20;;;;;;;;;;4960126;28;20070;-68
2022/08/21 13:48:23;;;;;;;9.15;2.58;;;;;;;;;;4945173;28;20031;-68
2022/08/21 13:50:49;;;;;;;12.32;2.92;;;;;;;;;;4944760;28;20051;-67
2022/08/21 13:53:32;;;;;;;10.85;2.45;;;;;;;;;;4957831;28;20476;-68
2022/08/21 13:55:59;;;;;;;11.82;2.72;;;;;;;;;;4946190;28;20024;-68
2022/08/21 13:58:30;;;;;;;7.63;2.22;;;;;;;;;;4959620;28;20070;-68
2022/08/21 14:00:57;;;;;;;9.70;2.38;;;;;;;;;;4984888;28;20029;-68
2022/08/21 14:03:37;;;;;;;13.20;3.40;;;;;;;;;;4967663;28;20381;-68
2022/08/21 14:06:11;;;;;;;12.25;2.67;;;;;;;;;;4948565;28;20039;-68
2022/08/21 14:08:40;;;;;;;10.57;2.35;;;;;;;;;;4962095;28;20031;-68
2022/08/21 14:11:10;;;;;;;9.75;2.58;;;;;;;;;;4962225;28;20540;-67
2022/08/21 14:13:48;;;;;;;11.47;2.50;;;;;;;;;;4942663;28;20090;-68
2022/08/21 14:16:14;;;;;;;7.95;2.50;;;;;;;;;;4941922;28;20031;-68
2022/08/21 14:18:46;;;;;;;11.23;2.25;;;;;;;;;;4943424;28;20099;-68
2022/08/21 14:21:13;;;;;;;9.10;2.60;;;;;;;;;;4949166;28;20088;-68
2022/08/21 14:23:39;;;;;;;14.98;3.00;;;;;;;;;;4952035;28;20074;-68
2022/08/21 14:26:07;;;;;;;12.05;2.70;;;;;;;;;;4949217;28;20069;-67
2022/08/21 14:28:35;;;;;;;12.88;2.72;;;;;;;;;;4942593;28;20043;-67
2022/08/21 14:31:15;;;;;;;16.25;2.83;;;;;;;;;;4945013;28;20035;-67
2022/08/21 14:33:42;;;;;;;11.57;2.50;;;;;;;;;;4941708;28;20024;-68
2022/08/21 14:36:08;;;;;;;13.77;2.92;;;;;;;;;;4941933;28;20041;-67
2022/08/21 14:38:36;;;;;;;10.95;2.97;;;;;;;;;;4959328;28;20033;-67